createdAt,value
2024-04-09T00:00:50.319Z,94171.00
2024-04-09T00:01:50.328Z,94168.00
2024-04-09T00:02:50.422Z,94173.00
2024-04-09T00:03:50.602Z,94184.00
2024-04-09T00:04:50.412Z,94186.00
2024-04-09T00:05:50.412Z,94183.00
2024-04-09T00:06:50.459Z,94179.00
2024-04-09T00:07:50.487Z,94173.00
2024-04-09T00:08:50.519Z,94170.00
2024-04-09T00:09:50.532Z,94170.00
2024-04-09T00:10:50.666Z,94175.00
2024-04-09T00:11:50.656Z,94175.00
2024-04-09T00:12:50.664Z,94168.00
2024-04-09T00:13:50.636Z,94164.00
2024-04-09T00:14:50.668Z,94172.00
2024-04-09T00:15:50.699Z,94170.00
2024-04-09T00:16:50.736Z,94172.00
2024-04-09T00:17:50.780Z,94167.00
2024-04-09T00:18:50.820Z,94159.00
2024-04-09T00:19:50.811Z,94157.00
2024-04-09T00:20:50.845Z,94160.00
2024-04-09T00:21:50.836Z,94163.00
2024-04-09T00:22:50.886Z,94163.00
2024-04-09T00:23:50.886Z,94158.00
2024-04-09T00:24:50.917Z,94162.00
2024-04-09T00:25:50.949Z,94160.00
2024-04-09T00:26:51.032Z,94164.00
2024-04-09T00:27:51.058Z,94164.00
2024-04-09T00:28:51.021Z,94162.00
2024-04-09T00:29:51.072Z,94166.00
2024-04-09T00:30:51.093Z,94165.00
2024-04-09T00:31:51.081Z,94165.00
2024-04-09T00:32:51.211Z,94163.00
2024-04-09T00:33:51.305Z,94163.00
2024-04-09T00:34:51.304Z,94162.00
2024-04-09T00:35:51.181Z,94161.00
2024-04-09T00:36:51.274Z,94161.00
2024-04-09T00:37:51.266Z,94167.00
2024-04-09T00:38:51.280Z,94171.00
2024-04-09T00:39:51.308Z,94169.00
2024-04-09T00:40:51.318Z,94164.00
2024-04-09T00:41:51.360Z,94162.00
2024-04-09T00:42:51.357Z,94162.00
2024-04-09T00:43:51.391Z,94163.00
2024-04-09T00:44:51.422Z,94162.00
2024-04-09T00:45:51.442Z,94158.00
2024-04-09T00:46:51.438Z,94155.00
2024-04-09T00:47:51.516Z,94154.00
2024-04-09T00:48:51.520Z,94157.00
2024-04-09T00:49:51.543Z,94152.00
2024-04-09T00:50:51.555Z,94147.00
2024-04-09T00:51:51.589Z,94142.00
2024-04-09T00:52:51.620Z,94142.00
2024-04-09T00:53:51.619Z,94146.00
2024-04-09T00:54:51.642Z,94148.00
2024-04-09T00:55:51.669Z,94147.00
2024-04-09T00:56:51.694Z,94141.00
2024-04-09T00:57:51.966Z,94138.00
2024-04-09T00:58:51.748Z,94138.00
2024-04-09T00:59:51.779Z,94139.00
2024-04-09T01:00:51.907Z,94140.00
2024-04-09T01:01:51.812Z,94136.00
2024-04-09T01:02:51.918Z,94133.00
2024-04-09T01:03:52.135Z,94136.00
2024-04-09T01:04:51.990Z,94136.00
2024-04-09T01:05:51.955Z,94138.00
2024-04-09T01:06:51.977Z,94138.00
2024-04-09T01:07:52.004Z,94139.00
2024-04-09T01:08:52.035Z,94134.00
2024-04-09T01:09:52.082Z,94128.00
2024-04-09T01:10:52.297Z,94138.00
2024-04-09T01:11:52.142Z,94136.00
2024-04-09T01:12:52.171Z,94135.00
2024-04-09T01:13:52.309Z,94129.00
2024-04-09T01:14:52.235Z,94125.00
2024-04-09T01:15:52.308Z,94121.00
2024-04-09T01:16:52.312Z,94124.00
2024-04-09T01:17:52.347Z,94130.00
2024-04-09T01:18:52.588Z,94131.00
2024-04-09T01:19:52.451Z,94131.00
2024-04-09T01:20:52.401Z,94132.00
2024-04-09T01:21:53.431Z,94135.00
2024-04-09T01:22:52.458Z,94134.00
2024-04-09T01:23:52.492Z,94134.00
2024-04-09T01:24:52.524Z,94133.00
2024-04-09T01:25:52.568Z,94127.00
2024-04-09T01:26:52.629Z,94121.00
2024-04-09T01:27:52.651Z,94127.00
2024-04-09T01:28:52.701Z,94130.00
2024-04-09T01:29:52.697Z,94128.00
2024-04-09T01:30:52.746Z,94132.00
2024-04-09T01:31:52.796Z,94126.00
2024-04-09T01:32:52.917Z,94121.00
2024-04-09T01:33:53.045Z,94117.00
2024-04-09T01:34:52.890Z,94114.00
2024-04-09T01:35:52.920Z,94115.00
2024-04-09T01:36:52.932Z,94119.00
2024-04-09T01:37:53.107Z,94119.00
2024-04-09T01:38:53.006Z,94117.00
2024-04-09T01:39:53.062Z,94124.00
2024-04-09T01:40:53.068Z,94127.00
2024-04-09T01:41:53.111Z,94128.00
2024-04-09T01:42:53.168Z,94132.00
2024-04-09T01:43:53.162Z,94123.00
2024-04-09T01:44:53.213Z,94123.00
2024-04-09T01:45:53.249Z,94128.00
2024-04-09T01:46:53.299Z,94132.00
2024-04-09T01:47:53.390Z,94133.00
2024-04-09T01:48:53.446Z,94131.00
2024-04-09T01:49:53.375Z,94130.00
2024-04-09T01:50:53.403Z,94127.00
2024-04-09T01:51:53.434Z,94126.00
2024-04-09T01:52:53.478Z,94122.00
2024-04-09T01:53:53.500Z,94128.00
2024-04-09T01:54:53.541Z,94133.00
2024-04-09T01:55:53.540Z,94135.00
2024-04-09T01:56:53.584Z,94136.00
2024-04-09T01:57:53.619Z,94137.00
2024-04-09T01:58:53.640Z,94136.00
2024-04-09T01:59:53.689Z,94141.00
2024-04-09T02:00:53.749Z,94140.00
2024-04-09T02:01:53.712Z,94141.00
2024-04-09T02:02:53.981Z,94142.00
2024-04-09T02:03:53.878Z,94140.00
2024-04-09T02:04:53.794Z,94140.00
2024-04-09T02:05:53.954Z,94140.00
2024-04-09T02:06:53.853Z,94138.00
2024-04-09T02:07:53.894Z,94135.00
2024-04-09T02:08:54.004Z,94135.00
2024-04-09T02:09:53.956Z,94136.00
2024-04-09T02:10:53.999Z,94138.00
2024-04-09T02:11:54.088Z,94136.00
2024-04-09T02:12:54.083Z,94142.00
2024-04-09T02:13:54.120Z,94142.00
2024-04-09T02:14:54.158Z,94141.00
2024-04-09T02:15:54.174Z,94140.00
2024-04-09T02:16:54.238Z,94135.00
2024-04-09T02:17:54.437Z,94133.00
2024-04-09T02:18:54.292Z,94132.00
2024-04-09T02:19:54.304Z,94136.00
2024-04-09T02:20:54.364Z,94137.00
2024-04-09T02:21:54.362Z,94142.00
2024-04-09T02:22:54.412Z,94143.00
2024-04-09T02:23:54.463Z,94146.00
2024-04-09T02:24:54.451Z,94146.00
2024-04-09T02:25:54.504Z,94144.00
2024-04-09T02:26:54.607Z,94140.00
2024-04-09T02:27:54.566Z,94136.00
2024-04-09T02:28:54.573Z,94134.00
2024-04-09T02:29:54.645Z,94137.00
2024-04-09T02:30:54.642Z,94136.00
2024-04-09T02:31:54.732Z,94137.00
2024-04-09T02:32:54.781Z,94136.00
2024-04-09T02:33:54.856Z,94136.00
2024-04-09T02:34:54.787Z,94136.00
2024-04-09T02:35:54.813Z,94134.00
2024-04-09T02:36:54.838Z,94134.00
2024-04-09T02:37:54.839Z,94133.00
2024-04-09T02:38:54.908Z,94134.00
2024-04-09T02:39:54.898Z,94136.00
2024-04-09T02:40:54.948Z,94136.00
2024-04-09T02:41:55.009Z,94139.00
2024-04-09T02:42:55.029Z,94136.00
2024-04-09T02:43:55.037Z,94134.00
2024-04-09T02:44:55.100Z,94136.00
2024-04-09T02:45:55.075Z,94137.00
2024-04-09T02:46:55.245Z,94137.00
2024-04-09T02:47:55.250Z,94139.00
2024-04-09T02:48:55.217Z,94142.00
2024-04-09T02:49:55.188Z,94144.00
2024-04-09T02:50:55.234Z,94143.00
2024-04-09T02:51:55.258Z,94139.00
2024-04-09T02:52:55.297Z,94140.00
2024-04-09T02:53:55.356Z,94138.00
2024-04-09T02:54:55.325Z,94136.00
2024-04-09T02:55:55.373Z,94138.00
2024-04-09T02:56:55.417Z,94139.00
2024-04-09T02:57:55.449Z,94134.00
2024-04-09T02:58:55.466Z,94132.00
2024-04-09T02:59:55.563Z,94132.00
2024-04-09T03:00:55.575Z,94132.00
2024-04-09T03:01:55.574Z,94135.00
2024-04-09T03:02:55.676Z,94131.00
2024-04-09T03:03:55.652Z,94131.00
2024-04-09T03:04:55.628Z,94129.00
2024-04-09T03:05:55.731Z,94123.00
2024-04-09T03:06:55.715Z,94121.00
2024-04-09T03:07:55.739Z,94123.00
2024-04-09T03:08:55.781Z,94123.00
2024-04-09T03:09:55.832Z,94126.00
2024-04-09T03:10:55.858Z,94126.00
2024-04-09T03:11:57.599Z,94127.00
2024-04-09T03:12:55.877Z,94129.00
2024-04-09T03:13:55.877Z,94131.00
2024-04-09T03:14:55.894Z,94133.00
2024-04-09T03:15:55.921Z,94131.00
2024-04-09T03:16:55.942Z,94130.00
2024-04-09T03:17:56.018Z,94127.00
2024-04-09T03:18:55.951Z,94120.00
2024-04-09T03:19:55.892Z,94115.00
2024-04-09T03:20:55.918Z,94115.00
2024-04-09T03:21:55.886Z,94117.00
2024-04-09T03:22:55.866Z,94118.00
2024-04-09T03:23:55.945Z,94121.00
2024-04-09T03:24:55.896Z,94125.00
2024-04-09T03:25:55.912Z,94127.00
2024-04-09T03:26:55.934Z,94127.00
2024-04-09T03:27:55.890Z,94128.00
2024-04-09T03:28:55.894Z,94133.00
2024-04-09T03:29:55.986Z,94135.00
2024-04-09T03:30:55.897Z,94134.00
2024-04-09T03:31:55.960Z,94135.00
2024-04-09T03:32:58.727Z,94137.00
2024-04-09T03:33:56.012Z,94133.00
2024-04-09T03:34:55.918Z,94131.00
2024-04-09T03:35:55.982Z,94132.00
2024-04-09T03:36:55.906Z,94128.00
2024-04-09T03:37:55.921Z,94127.00
2024-04-09T03:38:55.961Z,94127.00
2024-04-09T03:39:55.920Z,94131.00
2024-04-09T03:40:55.941Z,94134.00
2024-04-09T03:41:55.990Z,94135.00
2024-04-09T03:42:55.917Z,94133.00
2024-04-09T03:43:55.929Z,94133.00
2024-04-09T03:44:56.037Z,94131.00
2024-04-09T03:45:55.968Z,94130.00
2024-04-09T03:46:55.936Z,94128.00
2024-04-09T03:47:56.085Z,94127.00
2024-04-09T03:48:56.032Z,94128.00
2024-04-09T03:49:55.940Z,94128.00
2024-04-09T03:50:55.994Z,94131.00
2024-04-09T03:51:55.939Z,94131.00
2024-04-09T03:52:56.003Z,94131.00
2024-04-09T03:53:56.021Z,94132.00
2024-04-09T03:54:55.995Z,94131.00
2024-04-09T03:55:55.969Z,94128.00
2024-04-09T03:56:56.072Z,94126.00
2024-04-09T03:57:55.995Z,94124.00
2024-04-09T03:58:55.968Z,94124.00
2024-04-09T03:59:56.001Z,94124.00
2024-04-09T04:00:56.070Z,94126.00
2024-04-09T04:01:56.060Z,94127.00
2024-04-09T04:02:56.132Z,94128.00
2024-04-09T04:03:56.186Z,94127.00
2024-04-09T04:04:56.193Z,94129.00
2024-04-09T04:05:56.173Z,94130.00
2024-04-09T04:06:56.233Z,94128.00
2024-04-09T04:07:56.234Z,94120.00
2024-04-09T04:08:56.331Z,94117.00
2024-04-09T04:09:56.278Z,94113.00
2024-04-09T04:10:56.420Z,94111.00
2024-04-09T04:11:56.405Z,94112.00
2024-04-09T04:12:56.394Z,94111.00
2024-04-09T04:13:56.439Z,94111.00
2024-04-09T04:14:56.500Z,94104.00
2024-04-09T04:15:56.478Z,94107.00
2024-04-09T04:16:56.553Z,94110.00
2024-04-09T04:17:56.625Z,94104.00
2024-04-09T04:18:56.638Z,94101.00
2024-04-09T04:19:56.632Z,94092.00
2024-04-09T04:20:56.736Z,94091.00
2024-04-09T04:21:56.787Z,94088.00
2024-04-09T04:22:56.732Z,94085.00
2024-04-09T04:23:56.774Z,94083.00
2024-04-09T04:24:56.761Z,94083.00
2024-04-09T04:25:56.829Z,94085.00
2024-04-09T04:26:56.885Z,94086.00
2024-04-09T04:27:56.869Z,94083.00
2024-04-09T04:28:56.884Z,94083.00
2024-04-09T04:29:56.954Z,94083.00
2024-04-09T04:31:04.200Z,94082.00
2024-04-09T04:32:04.204Z,94080.00
2024-04-09T04:33:04.327Z,94079.00
2024-04-09T04:34:04.250Z,94076.00
2024-04-09T04:35:04.204Z,94078.00
2024-04-09T04:36:04.247Z,94075.00
2024-04-09T04:37:04.202Z,94069.00
2024-04-09T04:38:04.238Z,94069.00
2024-04-09T04:39:04.268Z,94065.00
2024-04-09T04:40:04.238Z,94061.00
2024-04-09T04:41:04.260Z,94062.00
2024-04-09T04:42:04.346Z,94061.00
2024-04-09T04:43:04.221Z,94062.00
2024-04-09T04:44:04.218Z,94067.00
2024-04-09T04:45:04.240Z,94068.00
2024-04-09T04:46:04.217Z,94075.00
2024-04-09T04:47:04.221Z,94073.00
2024-04-09T04:48:04.413Z,94070.00
2024-04-09T04:49:04.370Z,94072.00
2024-04-09T04:50:04.243Z,94073.00
2024-04-09T04:51:04.251Z,94073.00
2024-04-09T04:52:04.235Z,94070.00
2024-04-09T04:53:04.222Z,94068.00
2024-04-09T04:54:04.309Z,94058.00
2024-04-09T04:55:04.229Z,94055.00
2024-04-09T04:56:04.228Z,94052.00
2024-04-09T04:57:04.242Z,94049.00
2024-04-09T04:58:04.227Z,94051.00
2024-04-09T04:59:04.234Z,94055.00
2024-04-09T05:00:04.304Z,94059.00
2024-04-09T05:01:04.315Z,94066.00
2024-04-09T05:02:04.251Z,94072.00
2024-04-09T05:03:04.432Z,94072.00
2024-04-09T05:04:04.375Z,94071.00
2024-04-09T05:05:04.329Z,94072.00
2024-04-09T05:06:04.351Z,94071.00
2024-04-09T05:07:04.363Z,94068.00
2024-04-09T05:08:04.414Z,94065.00
2024-04-09T05:09:04.508Z,94064.00
2024-04-09T05:10:04.492Z,94058.00
2024-04-09T05:11:04.568Z,94061.00
2024-04-09T05:12:04.588Z,94064.00
2024-04-09T05:13:04.640Z,94069.00
2024-04-09T05:14:04.684Z,94070.00
2024-04-09T05:15:04.745Z,94069.00
2024-04-09T05:16:04.766Z,94068.00
2024-04-09T05:17:04.786Z,94063.00
2024-04-09T05:18:05.036Z,94059.00
2024-04-09T05:19:04.993Z,94054.00
2024-04-09T05:20:04.861Z,94055.00
2024-04-09T05:21:04.928Z,94055.00
2024-04-09T05:22:04.946Z,94057.00
2024-04-09T05:23:04.965Z,94064.00
2024-04-09T05:24:05.045Z,94067.00
2024-04-09T05:25:05.070Z,94065.00
2024-04-09T05:26:05.110Z,94066.00
2024-04-09T05:27:05.182Z,94066.00
2024-04-09T05:28:05.139Z,94067.00
2024-04-09T05:29:05.160Z,94070.00
2024-04-09T05:30:05.346Z,94068.00
2024-04-09T05:31:05.217Z,94067.00
2024-04-09T05:32:05.304Z,94063.00
2024-04-09T05:33:05.523Z,94063.00
2024-04-09T05:34:05.470Z,94064.00
2024-04-09T05:35:05.331Z,94065.00
2024-04-09T05:36:05.441Z,94063.00
2024-04-09T05:37:05.501Z,94062.00
2024-04-09T05:39:06.336Z,94063.00
2024-04-09T05:40:06.244Z,94068.00
2024-04-09T05:42:03.099Z,94072.00
2024-04-09T05:43:03.021Z,94071.00
2024-04-09T05:44:03.042Z,94068.00
2024-04-09T05:45:03.042Z,94063.00
2024-04-09T05:46:03.027Z,94063.00
2024-04-09T05:47:03.103Z,94062.00
2024-04-09T05:48:03.379Z,94068.00
2024-04-09T05:49:03.297Z,94070.00
2024-04-09T05:50:03.066Z,94070.00
2024-04-09T05:51:03.138Z,94071.00
2024-04-09T05:52:03.036Z,94073.00
2024-04-09T05:53:03.055Z,94075.00
2024-04-09T05:54:03.116Z,94079.00
2024-04-09T05:55:03.062Z,94080.00
2024-04-09T05:56:03.051Z,94080.00
2024-04-09T05:57:03.079Z,94085.00
2024-04-09T05:58:03.066Z,94085.00
2024-04-09T05:59:03.068Z,94086.00
2024-04-09T06:00:03.077Z,94090.00
2024-04-09T06:01:03.204Z,94092.00
2024-04-09T06:02:03.234Z,94095.00
2024-04-09T06:03:03.307Z,94100.00
2024-04-09T06:04:03.447Z,94101.00
2024-04-09T06:05:03.270Z,94107.00
2024-04-09T06:06:03.339Z,94109.00
2024-04-09T06:07:03.355Z,94110.00
2024-04-09T06:08:03.402Z,94109.00
2024-04-09T06:09:03.502Z,94107.00
2024-04-09T06:10:03.494Z,94109.00
2024-04-09T06:11:03.626Z,94108.00
2024-04-09T06:12:03.648Z,94111.00
2024-04-09T06:13:03.688Z,94109.00
2024-04-09T06:14:03.662Z,94110.00
2024-04-09T06:15:03.755Z,94112.00
2024-04-09T06:16:03.781Z,94111.00
2024-04-09T06:17:03.650Z,94110.00
2024-04-09T06:18:03.837Z,94106.00
2024-04-09T06:19:04.112Z,94106.00
2024-04-09T06:20:03.693Z,94106.00
2024-04-09T06:21:03.714Z,94104.00
2024-04-09T06:22:03.724Z,94101.00
2024-04-09T06:23:03.736Z,94103.00
2024-04-09T06:24:03.910Z,94100.00
2024-04-09T06:25:03.822Z,94097.00
2024-04-09T06:26:04.068Z,94097.00
2024-04-09T06:27:04.019Z,94096.00
2024-04-09T06:28:04.000Z,94099.00
2024-04-09T06:29:04.275Z,94098.00
2024-04-09T06:30:04.289Z,94096.00
2024-04-09T06:31:04.173Z,94098.00
2024-04-09T06:32:05.203Z,94097.00
2024-04-09T06:33:04.382Z,94099.00
2024-04-09T06:34:04.397Z,94101.00
2024-04-09T06:35:04.351Z,94105.00
2024-04-09T06:36:12.418Z,94107.00
2024-04-09T06:37:05.525Z,94107.00
2024-04-09T06:38:04.404Z,94109.00
2024-04-09T06:39:04.464Z,94107.00
2024-04-09T06:40:04.406Z,94108.00
2024-04-09T06:41:04.424Z,94110.00
2024-04-09T06:42:04.755Z,94114.00
2024-04-09T06:43:04.436Z,94117.00
2024-04-09T06:44:04.447Z,94116.00
2024-04-09T06:45:04.496Z,94114.00
2024-04-09T06:46:04.421Z,94113.00
2024-04-09T06:47:04.464Z,94112.00
2024-04-09T06:48:04.657Z,94113.00
2024-04-09T06:49:04.806Z,94108.00
2024-04-09T06:50:04.427Z,94107.00
2024-04-09T06:51:04.455Z,94107.00
2024-04-09T06:52:04.418Z,94108.00
2024-04-09T06:53:04.436Z,94108.00
2024-04-09T06:54:04.704Z,94110.00
2024-04-09T06:55:04.448Z,94108.00
2024-04-09T06:56:04.452Z,94109.00
2024-04-09T06:57:04.505Z,94111.00
2024-04-09T06:58:04.433Z,94114.00
2024-04-09T06:59:04.441Z,94114.00
2024-04-09T07:00:04.578Z,94120.00
2024-04-09T07:01:04.618Z,94125.00
2024-04-09T07:02:04.528Z,94126.00
2024-04-09T07:03:04.595Z,94124.00
2024-04-09T07:04:05.041Z,94121.00
2024-04-09T07:05:04.559Z,94119.00
2024-04-09T07:06:04.636Z,94118.00
2024-04-09T07:07:04.593Z,94124.00
2024-04-09T07:08:07.379Z,94127.00
2024-04-09T07:09:04.782Z,94130.00
2024-04-09T07:10:04.657Z,94132.00
2024-04-09T07:11:04.723Z,94132.00
2024-04-09T07:12:04.663Z,94132.00
2024-04-09T07:13:04.649Z,94134.00
2024-04-09T07:14:04.676Z,94133.00
2024-04-09T07:15:04.832Z,94131.00
2024-04-09T07:16:04.658Z,94131.00
2024-04-09T07:17:04.699Z,94131.00
2024-04-09T07:18:04.893Z,94131.00
2024-04-09T07:19:04.841Z,94135.00
2024-04-09T07:20:04.662Z,94136.00
2024-04-09T07:21:04.701Z,94132.00
2024-04-09T07:22:04.676Z,94133.00
2024-04-09T07:23:06.757Z,94133.00
2024-04-09T07:24:04.711Z,94134.00
2024-04-09T07:25:04.685Z,94133.00
2024-04-09T07:26:04.694Z,94131.00
2024-04-09T07:27:04.732Z,94130.00
2024-04-09T07:28:04.679Z,94132.00
2024-04-09T07:29:04.703Z,94129.00
2024-04-09T07:30:04.760Z,94129.00
2024-04-09T07:31:04.684Z,94129.00
2024-04-09T07:32:04.691Z,94129.00
2024-04-09T07:33:04.731Z,94130.00
2024-04-09T07:34:04.701Z,94129.00
2024-04-09T07:35:04.697Z,94129.00
2024-04-09T07:36:04.898Z,94127.00
2024-04-09T07:37:04.702Z,94128.00
2024-04-09T07:38:04.707Z,94130.00
2024-04-09T07:39:04.765Z,94130.00
2024-04-09T07:40:04.697Z,94127.00
2024-04-09T07:41:04.691Z,94126.00
2024-04-09T07:42:05.191Z,94127.00
2024-04-09T07:43:04.700Z,94130.00
2024-04-09T07:44:04.737Z,94128.00
2024-04-09T07:45:04.868Z,94131.00
2024-04-09T07:46:04.719Z,94131.00
2024-04-09T07:47:04.737Z,94129.00
2024-04-09T07:48:04.945Z,94129.00
2024-04-09T07:49:04.785Z,94129.00
2024-04-09T07:50:04.719Z,94128.00
2024-04-09T07:51:05.049Z,94130.00
2024-04-09T07:52:04.774Z,94131.00
2024-04-09T07:53:04.729Z,94128.00
2024-04-09T07:54:04.790Z,94129.00
2024-04-09T07:55:04.733Z,94129.00
2024-04-09T07:56:04.785Z,94130.00
2024-04-09T07:57:04.755Z,94131.00
2024-04-09T07:58:04.779Z,94129.00
2024-04-09T07:59:04.773Z,94132.00
2024-04-09T08:00:04.791Z,94133.00
2024-04-09T08:01:04.809Z,94137.00
2024-04-09T08:02:04.749Z,94133.00
2024-04-09T08:03:05.119Z,94129.00
2024-04-09T08:04:04.911Z,94128.00
2024-04-09T08:05:05.069Z,94129.00
2024-04-09T08:06:04.997Z,94129.00
2024-04-09T08:07:04.941Z,94130.00
2024-04-09T08:08:04.939Z,94131.00
2024-04-09T08:09:05.291Z,94130.00
2024-04-09T08:10:04.889Z,94131.00
2024-04-09T08:11:04.974Z,94132.00
2024-04-09T08:12:04.971Z,94133.00
2024-04-09T08:13:04.801Z,94133.00
2024-04-09T08:14:04.880Z,94132.00
2024-04-09T08:15:04.941Z,94132.00
2024-04-09T08:16:04.928Z,94132.00
2024-04-09T08:17:04.972Z,94132.00
2024-04-09T08:18:05.166Z,94134.00
2024-04-09T08:19:05.283Z,94133.00
2024-04-09T08:20:05.083Z,94132.00
2024-04-09T08:21:05.125Z,94132.00
2024-04-09T08:22:05.857Z,94131.00
2024-04-09T08:23:05.124Z,94133.00
2024-04-09T08:24:05.262Z,94133.00
2024-04-09T08:25:05.177Z,94133.00
2024-04-09T08:26:05.211Z,94132.00
2024-04-09T08:27:05.390Z,94130.00
2024-04-09T08:28:05.335Z,94132.00
2024-04-09T08:29:05.922Z,94136.00
2024-04-09T08:30:05.531Z,94138.00
2024-04-09T08:31:05.491Z,94136.00
2024-04-09T08:32:05.581Z,94136.00
2024-04-09T08:33:05.694Z,94131.00
2024-04-09T08:34:05.868Z,94134.00
2024-04-09T08:35:05.778Z,94133.00
2024-04-09T08:36:05.895Z,94132.00
2024-04-09T08:37:05.888Z,94133.00
2024-04-09T08:38:06.055Z,94131.00
2024-04-09T08:39:06.248Z,94132.00
2024-04-09T08:40:06.331Z,94130.00
2024-04-09T08:41:06.179Z,94133.00
2024-04-09T08:42:06.234Z,94131.00
2024-04-09T08:43:06.350Z,94131.00
2024-04-09T08:44:06.241Z,94132.00
2024-04-09T08:45:06.554Z,94130.00
2024-04-09T08:46:06.425Z,94128.00
2024-04-09T08:47:06.507Z,94126.00
2024-04-09T08:48:06.615Z,94127.00
2024-04-09T08:49:06.991Z,94123.00
2024-04-09T08:50:09.783Z,94123.00
2024-04-09T08:51:06.814Z,94120.00
2024-04-09T08:52:06.590Z,94122.00
2024-04-09T08:53:06.658Z,94120.00
2024-04-09T08:54:06.607Z,94120.00
2024-04-09T08:55:06.580Z,94118.00
2024-04-09T08:56:06.565Z,94116.00
2024-04-09T08:57:06.572Z,94112.00
2024-04-09T08:58:06.571Z,94112.00
2024-04-09T08:59:06.687Z,94107.00
2024-04-09T09:00:06.713Z,94107.00
2024-04-09T09:01:06.779Z,94104.00
2024-04-09T09:02:06.653Z,94100.00
2024-04-09T09:03:06.769Z,94103.00
2024-04-09T09:04:06.741Z,94102.00
2024-04-09T09:05:06.638Z,94101.00
2024-04-09T09:06:06.672Z,94101.00
2024-04-09T09:07:06.583Z,94105.00
2024-04-09T09:08:07.883Z,94104.00
2024-04-09T09:09:06.815Z,94106.00
2024-04-09T09:10:06.696Z,94108.00
2024-04-09T09:11:06.835Z,94109.00
2024-04-09T09:12:06.865Z,94108.00
2024-04-09T09:13:06.917Z,94104.00
2024-04-09T09:14:06.898Z,94106.00
2024-04-09T09:15:07.013Z,94104.00
2024-04-09T09:16:07.026Z,94102.00
2024-04-09T09:17:07.100Z,94100.00
2024-04-09T09:18:07.160Z,94099.00
2024-04-09T09:19:07.379Z,94094.00
2024-04-09T09:20:07.146Z,94095.00
2024-04-09T09:21:07.369Z,94092.00
2024-04-09T09:22:07.225Z,94092.00
2024-04-09T09:23:07.266Z,94085.00
2024-04-09T09:24:07.364Z,94086.00
2024-04-09T09:25:09.601Z,94081.00
2024-04-09T09:26:07.808Z,94082.00
2024-04-09T09:27:07.411Z,94079.00
2024-04-09T09:28:07.390Z,94074.00
2024-04-09T09:29:07.761Z,94072.00
2024-04-09T09:30:07.470Z,94069.00
2024-04-09T09:31:07.360Z,94067.00
2024-04-09T09:32:07.441Z,94064.00
2024-04-09T09:33:07.419Z,94062.00
2024-04-09T09:34:07.440Z,94061.00
2024-04-09T09:35:07.408Z,94058.00
2024-04-09T09:36:07.399Z,94060.00
2024-04-09T09:37:07.357Z,94057.00
2024-04-09T09:38:07.368Z,94059.00
2024-04-09T09:39:07.507Z,94056.00
2024-04-09T09:40:07.483Z,94059.00
2024-04-09T09:41:07.373Z,94059.00
2024-04-09T09:42:07.430Z,94058.00
2024-04-09T09:43:07.387Z,94056.00
2024-04-09T09:44:07.385Z,94055.00
2024-04-09T09:45:07.441Z,94052.00
2024-04-09T09:46:07.430Z,94052.00
2024-04-09T09:47:08.366Z,94052.00
2024-04-09T09:48:07.497Z,94052.00
2024-04-09T09:49:07.952Z,94050.00
2024-04-09T09:50:13.906Z,94051.00
2024-04-09T09:51:08.438Z,94050.00
2024-04-09T09:52:07.453Z,94051.00
2024-04-09T09:53:07.716Z,94054.00
2024-04-09T09:54:07.447Z,94052.00
2024-04-09T09:55:10.275Z,94052.00
2024-04-09T09:56:07.396Z,94050.00
2024-04-09T09:57:07.474Z,94050.00
2024-04-09T09:58:07.412Z,94045.00
2024-04-09T09:59:07.425Z,94044.00
2024-04-09T10:00:07.457Z,94041.00
2024-04-09T10:01:07.608Z,94038.00
2024-04-09T10:02:07.398Z,94040.00
2024-04-09T10:03:07.496Z,94039.00
2024-04-09T10:04:07.688Z,94036.00
2024-04-09T10:05:07.506Z,94037.00
2024-04-09T10:06:07.459Z,94036.00
2024-04-09T10:07:07.457Z,94034.00
2024-04-09T10:08:07.421Z,94034.00
2024-04-09T10:09:07.480Z,94033.00
2024-04-09T10:10:07.423Z,94035.00
2024-04-09T10:11:07.484Z,94033.00
2024-04-09T10:12:07.469Z,94035.00
2024-04-09T10:13:07.435Z,94032.00
2024-04-09T10:14:07.447Z,94030.00
2024-04-09T10:15:07.527Z,94028.00
2024-04-09T10:16:07.444Z,94027.00
2024-04-09T10:17:07.514Z,94025.00
2024-04-09T10:18:07.809Z,94023.00
2024-04-09T10:19:07.513Z,94021.00
2024-04-09T10:20:07.460Z,94020.00
2024-04-09T10:21:07.986Z,94020.00
2024-04-09T10:22:07.462Z,94016.00
2024-04-09T10:23:09.835Z,94014.00
2024-04-09T10:24:07.482Z,94009.00
2024-04-09T10:25:07.483Z,94009.00
2024-04-09T10:26:07.785Z,94007.00
2024-04-09T10:27:07.559Z,94006.00
2024-04-09T10:28:07.465Z,94006.00
2024-04-09T10:29:07.815Z,94004.00
2024-04-09T10:30:07.520Z,94001.00
2024-04-09T10:31:07.489Z,94003.00
2024-04-09T10:32:07.458Z,94000.00
2024-04-09T10:33:07.844Z,93998.00
2024-04-09T10:34:08.954Z,93999.00
2024-04-09T10:35:07.606Z,93993.00
2024-04-09T10:36:07.498Z,93985.00
2024-04-09T10:37:07.543Z,93984.00
2024-04-09T10:38:07.504Z,93984.00
2024-04-09T10:39:07.652Z,93983.00
2024-04-09T10:40:07.575Z,93980.00
2024-04-09T10:41:07.504Z,93978.00
2024-04-09T10:42:07.567Z,93977.00
2024-04-09T10:43:07.536Z,93981.00
2024-04-09T10:44:07.862Z,93978.00
2024-04-09T10:45:07.513Z,93974.00
2024-04-09T10:46:13.174Z,93973.00
2024-04-09T10:47:08.549Z,93973.00
2024-04-09T10:48:07.567Z,93970.00
2024-04-09T10:49:07.553Z,93970.00
2024-04-09T10:50:07.580Z,93969.00
2024-04-09T10:51:07.579Z,93966.00
2024-04-09T10:52:07.518Z,93961.00
2024-04-09T10:53:07.523Z,93963.00
2024-04-09T10:54:07.596Z,93958.00
2024-04-09T10:55:07.528Z,93963.00
2024-04-09T10:56:07.541Z,93959.00
2024-04-09T10:57:07.574Z,93949.00
2024-04-09T10:58:07.533Z,93950.00
2024-04-09T10:59:07.586Z,93944.00
2024-04-09T11:00:07.735Z,93947.00
2024-04-09T11:01:07.931Z,93943.00
2024-04-09T11:02:07.766Z,93942.00
2024-04-09T11:03:07.965Z,93943.00
2024-04-09T11:04:08.002Z,93937.00
2024-04-09T11:05:08.003Z,93939.00
2024-04-09T11:06:08.035Z,93933.00
2024-04-09T11:07:08.024Z,93932.00
2024-04-09T11:08:08.089Z,93931.00
2024-04-09T11:09:08.284Z,93924.00
2024-04-09T11:10:08.229Z,93925.00
2024-04-09T11:11:08.260Z,93924.00
2024-04-09T11:12:08.290Z,93924.00
2024-04-09T11:13:08.300Z,93922.00
2024-04-09T11:14:08.364Z,93917.00
2024-04-09T11:15:08.447Z,93915.00
2024-04-09T11:16:08.461Z,93913.00
2024-04-09T11:17:08.635Z,93914.00
2024-04-09T11:18:08.804Z,93915.00
2024-04-09T11:19:08.893Z,93917.00
2024-04-09T11:20:08.723Z,93918.00
2024-04-09T11:21:08.816Z,93917.00
2024-04-09T11:22:08.859Z,93917.00
2024-04-09T11:23:08.864Z,93919.00
2024-04-09T11:24:09.324Z,93917.00
2024-04-09T11:25:08.939Z,93922.00
2024-04-09T11:26:09.031Z,93915.00
2024-04-09T11:27:09.124Z,93911.00
2024-04-09T11:28:09.119Z,93914.00
2024-04-09T11:29:09.236Z,93908.00
2024-04-09T11:30:09.267Z,93917.00
2024-04-09T11:31:09.278Z,93918.00
2024-04-09T11:32:09.299Z,93917.00
2024-04-09T11:33:09.477Z,93915.00
2024-04-09T11:34:09.593Z,93913.00
2024-04-09T11:35:09.432Z,93912.00
2024-04-09T11:36:17.075Z,93912.00
2024-04-09T11:37:10.554Z,93907.00
2024-04-09T11:38:09.496Z,93902.00
2024-04-09T11:39:09.537Z,93910.00
2024-04-09T11:40:09.519Z,93912.00
2024-04-09T11:41:09.553Z,93916.00
2024-04-09T11:42:09.531Z,93909.00
2024-04-09T11:43:11.702Z,93912.00
2024-04-09T11:44:09.504Z,93905.00
2024-04-09T11:45:09.565Z,93908.00
2024-04-09T11:46:09.501Z,93908.00
2024-04-09T11:47:09.560Z,93908.00